sensor_id;sensor_type;location;lat;lon;timestamp;P1;durP1;ratioP1;P2;durP2;ratioP2
29812;SDS011;16707;48.106;11.548;2022-07-30T00:01:47;2.00;;;1.80;;
29812;SDS011;16707;48.106;11.548;2022-07-30T00:04:14;1.90;;;1.80;;
29812;SDS011;16707;48.106;11.548;2022-07-30T00:06:45;3.08;;;2.65;;
29812;SDS011;16707;48.106;11.548;2022-07-30T00:09:27;2.72;;;1.90;;
29812;SDS011;16707;48.106;11.548;2022-07-30T00:12:01;2.33;;;1.90;;
29812;SDS011;16707;48.106;11.548;2022-07-30T00:14:29;2.33;;;1.98;;
29812;SDS011;16707;48.106;11.548;2022-07-30T00:16:56;3.17;;;2.05;;
29812;SDS011;16707;48.106;11.548;2022-07-30T00:19:29;2.22;;;1.98;;
29812;SDS011;16707;48.106;11.548;2022-07-30T00:22:04;2.63;;;2.00;;
29812;SDS011;16707;48.106;11.548;2022-07-30T00:24:38;2.47;;;2.25;;
29812;SDS011;16707;48.106;11.548;2022-07-30T00:27:13;2.00;;;1.80;;
29812;SDS011;16707;48.106;11.548;2022-07-30T00:29:42;2.13;;;1.77;;
29812;SDS011;16707;48.106;11.548;2022-07-30T00:32:11;2.17;;;1.50;;
29812;SDS011;16707;48.106;11.548;2022-07-30T00:34:45;2.55;;;2.10;;
29812;SDS011;16707;48.106;11.548;2022-07-30T00:37:13;2.00;;;1.88;;
29812;SDS011;16707;48.106;11.548;2022-07-30T00:39:51;2.70;;;1.85;;
29812;SDS011;16707;48.106;11.548;2022-07-30T00:42:19;2.53;;;2.33;;
29812;SDS011;16707;48.106;11.548;2022-07-30T00:44:53;3.60;;;1.90;;
29812;SDS011;16707;48.106;11.548;2022-07-30T00:47:21;2.30;;;2.10;;
29812;SDS011;16707;48.106;11.548;2022-07-30T00:49:53;2.17;;;1.98;;
29812;SDS011;16707;48.106;11.548;2022-07-30T00:52:25;2.72;;;2.10;;
29812;SDS011;16707;48.106;11.548;2022-07-30T00:55:06;3.22;;;2.10;;
29812;SDS011;16707;48.106;11.548;2022-07-30T00:57:42;3.05;;;1.95;;
29812;SDS011;16707;48.106;11.548;2022-07-30T01:00:15;2.60;;;2.22;;
29812;SDS011;16707;48.106;11.548;2022-07-30T01:02:44;2.85;;;2.00;;
29812;SDS011;16707;48.106;11.548;2022-07-30T01:05:18;2.72;;;2.33;;
29812;SDS011;16707;48.106;11.548;2022-07-30T01:07:47;4.47;;;2.78;;
29812;SDS011;16707;48.106;11.548;2022-07-30T01:10:20;4.13;;;2.10;;
29812;SDS011;16707;48.106;11.548;2022-07-30T01:12:51;3.15;;;2.00;;
29812;SDS011;16707;48.106;11.548;2022-07-30T01:15:31;2.55;;;2.35;;
29812;SDS011;16707;48.106;11.548;2022-07-30T01:18:06;2.22;;;2.00;;
29812;SDS011;16707;48.106;11.548;2022-07-30T01:20:48;2.75;;;1.98;;
29812;SDS011;16707;48.106;11.548;2022-07-30T01:23:35;3.67;;;2.00;;
29812;SDS011;16707;48.106;11.548;2022-07-30T01:26:19;2.70;;;2.00;;
29812;SDS011;16707;48.106;11.548;2022-07-30T01:28:55;3.22;;;2.40;;
29812;SDS011;16707;48.106;11.548;2022-07-30T01:31:29;2.38;;;1.85;;
29812;SDS011;16707;48.106;11.548;2022-07-30T01:33:58;2.30;;;2.08;;
29812;SDS011;16707;48.106;11.548;2022-07-30T01:36:27;2.38;;;2.00;;
29812;SDS011;16707;48.106;11.548;2022-07-30T01:39:05;3.60;;;2.13;;
29812;SDS011;16707;48.106;11.548;2022-07-30T01:41:49;2.47;;;2.17;;
29812;SDS011;16707;48.106;11.548;2022-07-30T01:44:25;3.17;;;2.35;;
29812;SDS011;16707;48.106;11.548;2022-07-30T01:46:56;3.50;;;2.35;;
29812;SDS011;16707;48.106;11.548;2022-07-30T01:49:39;3.70;;;2.40;;
29812;SDS011;16707;48.106;11.548;2022-07-30T01:52:11;2.58;;;2.13;;
29812;SDS011;16707;48.106;11.548;2022-07-30T01:54:39;2.65;;;2.35;;
29812;SDS011;16707;48.106;11.548;2022-07-30T01:57:16;3.67;;;2.50;;
29812;SDS011;16707;48.106;11.548;2022-07-30T01:59:46;2.93;;;2.33;;
29812;SDS011;16707;48.106;11.548;2022-07-30T02:02:28;3.33;;;2.60;;
29812;SDS011;16707;48.106;11.548;2022-07-30T02:04:55;2.63;;;2.35;;
29812;SDS011;16707;48.106;11.548;2022-07-30T02:07:26;3.05;;;2.50;;
29812;SDS011;16707;48.106;11.548;2022-07-30T02:10:03;4.15;;;2.63;;
29812;SDS011;16707;48.106;11.548;2022-07-30T02:12:40;3.20;;;2.90;;
29812;SDS011;16707;48.106;11.548;2022-07-30T02:15:24;2.65;;;2.45;;
29812;SDS011;16707;48.106;11.548;2022-07-30T02:18:03;3.38;;;2.30;;
29812;SDS011;16707;48.106;11.548;2022-07-30T02:20:43;3.05;;;2.40;;
29812;SDS011;16707;48.106;11.548;2022-07-30T02:23:19;3.03;;;2.63;;
29812;SDS011;16707;48.106;11.548;2022-07-30T02:25:53;3.53;;;2.70;;
29812;SDS011;16707;48.106;11.548;2022-07-30T02:28:26;3.30;;;2.95;;
29812;SDS011;16707;48.106;11.548;2022-07-30T02:31:03;3.33;;;2.80;;
29812;SDS011;16707;48.106;11.548;2022-07-30T02:33:57;3.28;;;2.97;;
29812;SDS011;16707;48.106;11.548;2022-07-30T02:36:30;3.80;;;2.53;;
29812;SDS011;16707;48.106;11.548;2022-07-30T02:39:07;3.10;;;2.80;;
29812;SDS011;16707;48.106;11.548;2022-07-30T02:41:38;2.92;;;2.67;;
29812;SDS011;16707;48.106;11.548;2022-07-30T02:44:16;4.75;;;3.08;;
29812;SDS011;16707;48.106;11.548;2022-07-30T02:46:58;3.50;;;3.20;;
29812;SDS011;16707;48.106;11.548;2022-07-30T02:49:32;3.50;;;2.97;;
29812;SDS011;16707;48.106;11.548;2022-07-30T02:52:07;3.85;;;3.40;;
29812;SDS011;16707;48.106;11.548;2022-07-30T02:54:37;3.78;;;3.35;;
29812;SDS011;16707;48.106;11.548;2022-07-30T02:57:14;4.28;;;3.45;;
29812;SDS011;16707;48.106;11.548;2022-07-30T02:59:48;4.38;;;3.50;;
29812;SDS011;16707;48.106;11.548;2022-07-30T03:02:22;4.03;;;3.50;;
29812;SDS011;16707;48.106;11.548;2022-07-30T03:04:58;4.03;;;3.33;;
29812;SDS011;16707;48.106;11.548;2022-07-30T03:07:34;4.28;;;3.55;;
29812;SDS011;16707;48.106;11.548;2022-07-30T03:10:08;4.75;;;3.28;;
29812;SDS011;16707;48.106;11.548;2022-07-30T03:12:43;4.97;;;3.42;;
29812;SDS011;16707;48.106;11.548;2022-07-30T03:15:23;4.50;;;3.47;;
29812;SDS011;16707;48.106;11.548;2022-07-30T03:17:54;4.65;;;3.20;;
29812;SDS011;16707;48.106;11.548;2022-07-30T03:20:29;3.78;;;3.42;;
29812;SDS011;16707;48.106;11.548;2022-07-30T03:23:03;6.43;;;3.75;;
29812;SDS011;16707;48.106;11.548;2022-07-30T03:25:35;4.15;;;3.75;;
29812;SDS011;16707;48.106;11.548;2022-07-30T03:28:08;4.05;;;3.42;;
29812;SDS011;16707;48.106;11.548;2022-07-30T03:30:39;3.53;;;3.22;;
29812;SDS011;16707;48.106;11.548;2022-07-30T03:33:15;4.22;;;3.83;;
29812;SDS011;16707;48.106;11.548;2022-07-30T03:35:48;4.20;;;3.80;;
29812;SDS011;16707;48.106;11.548;2022-07-30T03:38:17;4.68;;;3.05;;
29812;SDS011;16707;48.106;11.548;2022-07-30T03:40:46;4.72;;;3.60;;
29812;SDS011;16707;48.106;11.548;2022-07-30T03:43:25;4.00;;;3.60;;
29812;SDS011;16707;48.106;11.548;2022-07-30T03:45:57;6.25;;;4.20;;
29812;SDS011;16707;48.106;11.548;2022-07-30T03:48:29;4.03;;;3.60;;
29812;SDS011;16707;48.106;11.548;2022-07-30T03:51:02;4.18;;;3.78;;
29812;SDS011;16707;48.106;11.548;2022-07-30T03:53:43;4.38;;;3.70;;
29812;SDS011;16707;48.106;11.548;2022-07-30T03:56:19;4.20;;;3.65;;
29812;SDS011;16707;48.106;11.548;2022-07-30T03:58:46;4.10;;;3.70;;
29812;SDS011;16707;48.106;11.548;2022-07-30T04:01:25;4.90;;;3.95;;
29812;SDS011;16707;48.106;11.548;2022-07-30T04:03:52;4.78;;;3.72;;
29812;SDS011;16707;48.106;11.548;2022-07-30T04:06:19;4.95;;;3.60;;
29812;SDS011;16707;48.106;11.548;2022-07-30T04:08:54;4.32;;;3.72;;
29812;SDS011;16707;48.106;11.548;2022-07-30T04:11:30;5.40;;;4.88;;
29812;SDS011;16707;48.106;11.548;2022-07-30T04:14:03;6.10;;;4.00;;
29812;SDS011;16707;48.106;11.548;2022-07-30T04:16:41;4.60;;;4.07;;
29812;SDS011;16707;48.106;11.548;2022-07-30T04:19:18;4.22;;;3.67;;
29812;SDS011;16707;48.106;11.548;2022-07-30T04:21:53;5.20;;;4.70;;
29812;SDS011;16707;48.106;11.548;2022-07-30T04:24:34;4.82;;;4.40;;
29812;SDS011;16707;48.106;11.548;2022-07-30T04:27:07;4.38;;;3.78;;
29812;SDS011;16707;48.106;11.548;2022-07-30T04:29:52;4.10;;;3.70;;
29812;SDS011;16707;48.106;11.548;2022-07-30T04:32:21;5.97;;;3.70;;
29812;SDS011;16707;48.106;11.548;2022-07-30T04:34:54;4.00;;;3.58;;
29812;SDS011;16707;48.106;11.548;2022-07-30T04:37:52;4.90;;;3.78;;
29812;SDS011;16707;48.106;11.548;2022-07-30T04:40:20;4.03;;;3.63;;
29812;SDS011;16707;48.106;11.548;2022-07-30T04:42:49;5.25;;;3.97;;
29812;SDS011;16707;48.106;11.548;2022-07-30T04:45:26;5.45;;;3.85;;
29812;SDS011;16707;48.106;11.548;2022-07-30T04:48:00;4.63;;;3.42;;
29812;SDS011;16707;48.106;11.548;2022-07-30T04:50:37;6.78;;;3.70;;
29812;SDS011;16707;48.106;11.548;2022-07-30T04:53:10;4.68;;;4.18;;
29812;SDS011;16707;48.106;11.548;2022-07-30T04:55:38;4.20;;;3.80;;
29812;SDS011;16707;48.106;11.548;2022-07-30T04:58:12;3.88;;;3.47;;
29812;SDS011;16707;48.106;11.548;2022-07-30T05:00:45;4.35;;;3.95;;
29812;SDS011;16707;48.106;11.548;2022-07-30T05:03:19;5.30;;;3.30;;
29812;SDS011;16707;48.106;11.548;2022-07-30T05:05:52;5.20;;;3.58;;
29812;SDS011;16707;48.106;11.548;2022-07-30T05:08:21;4.55;;;3.45;;
29812;SDS011;16707;48.106;11.548;2022-07-30T05:10:59;7.03;;;3.53;;
29812;SDS011;16707;48.106;11.548;2022-07-30T05:13:40;4.93;;;3.83;;
29812;SDS011;16707;48.106;11.548;2022-07-30T05:16:22;3.92;;;3.10;;
29812;SDS011;16707;48.106;11.548;2022-07-30T05:18:50;5.13;;;3.10;;
29812;SDS011;16707;48.106;11.548;2022-07-30T05:21:27;3.78;;;3.38;;
29812;SDS011;16707;48.106;11.548;2022-07-30T05:24:02;3.95;;;3.20;;
29812;SDS011;16707;48.106;11.548;2022-07-30T05:26:32;5.40;;;3.58;;
29812;SDS011;16707;48.106;11.548;2022-07-30T05:29:09;3.60;;;2.90;;
29812;SDS011;16707;48.106;11.548;2022-07-30T05:31:39;3.83;;;3.17;;
29812;SDS011;16707;48.106;11.548;2022-07-30T05:34:08;4.43;;;3.65;;
29812;SDS011;16707;48.106;11.548;2022-07-30T05:36:48;4.55;;;3.25;;
29812;SDS011;16707;48.106;11.548;2022-07-30T05:39:21;3.60;;;3.30;;
29812;SDS011;16707;48.106;11.548;2022-07-30T05:41:51;4.65;;;3.00;;
29812;SDS011;16707;48.106;11.548;2022-07-30T05:44:19;3.97;;;3.33;;
29812;SDS011;16707;48.106;11.548;2022-07-30T05:46:46;3.17;;;2.88;;
29812;SDS011;16707;48.106;11.548;2022-07-30T05:49:20;3.60;;;3.30;;
29812;SDS011;16707;48.106;11.548;2022-07-30T05:51:50;4.53;;;3.50;;
29812;SDS011;16707;48.106;11.548;2022-07-30T05:54:25;2.92;;;2.65;;
29812;SDS011;16707;48.106;11.548;2022-07-30T05:56:55;4.07;;;3.35;;
29812;SDS011;16707;48.106;11.548;2022-07-30T05:59:22;4.40;;;3.05;;
29812;SDS011;16707;48.106;11.548;2022-07-30T06:01:52;3.83;;;3.08;;
29812;SDS011;16707;48.106;11.548;2022-07-30T06:04:25;3.88;;;3.10;;
29812;SDS011;16707;48.106;11.548;2022-07-30T06:06:52;3.85;;;3.53;;
29812;SDS011;16707;48.106;11.548;2022-07-30T06:09:23;4.40;;;3.30;;
29812;SDS011;16707;48.106;11.548;2022-07-30T06:11:53;6.28;;;3.78;;
29812;SDS011;16707;48.106;11.548;2022-07-30T06:14:20;4.38;;;3.70;;
29812;SDS011;16707;48.106;11.548;2022-07-30T06:16:47;5.15;;;3.58;;
29812;SDS011;16707;48.106;11.548;2022-07-30T06:19:15;4.88;;;3.88;;
29812;SDS011;16707;48.106;11.548;2022-07-30T06:21:44;3.92;;;3.53;;
29812;SDS011;16707;48.106;11.548;2022-07-30T06:24:12;4.35;;;3.85;;
29812;SDS011;16707;48.106;11.548;2022-07-30T06:26:42;3.60;;;3.00;;
29812;SDS011;16707;48.106;11.548;2022-07-30T06:29:24;4.05;;;3.38;;
29812;SDS011;16707;48.106;11.548;2022-07-30T06:31:53;3.90;;;3.50;;
29812;SDS011;16707;48.106;11.548;2022-07-30T06:34:24;5.35;;;3.70;;
29812;SDS011;16707;48.106;11.548;2022-07-30T06:36:56;3.80;;;3.40;;
29812;SDS011;16707;48.106;11.548;2022-07-30T06:39:32;4.32;;;3.60;;
29812;SDS011;16707;48.106;11.548;2022-07-30T06:41:59;3.58;;;3.25;;
29812;SDS011;16707;48.106;11.548;2022-07-30T06:44:27;3.88;;;3.45;;
29812;SDS011;16707;48.106;11.548;2022-07-30T06:46:55;4.20;;;3.80;;
29812;SDS011;16707;48.106;11.548;2022-07-30T06:49:34;4.70;;;3.92;;
29812;SDS011;16707;48.106;11.548;2022-07-30T06:52:03;4.53;;;4.10;;
29812;SDS011;16707;48.106;11.548;2022-07-30T06:54:32;4.25;;;3.85;;
29812;SDS011;16707;48.106;11.548;2022-07-30T06:57:04;5.78;;;4.30;;
29812;SDS011;16707;48.106;11.548;2022-07-30T06:59:32;5.70;;;3.65;;
29812;SDS011;16707;48.106;11.548;2022-07-30T07:02:02;6.00;;;4.03;;
29812;SDS011;16707;48.106;11.548;2022-07-30T07:04:32;5.82;;;3.97;;
29812;SDS011;16707;48.106;11.548;2022-07-30T07:07:05;5.63;;;4.43;;
29812;SDS011;16707;48.106;11.548;2022-07-30T07:09:38;4.10;;;3.70;;
29812;SDS011;16707;48.106;11.548;2022-07-30T07:12:13;4.95;;;4.45;;
29812;SDS011;16707;48.106;11.548;2022-07-30T07:14:40;4.70;;;4.20;;
29812;SDS011;16707;48.106;11.548;2022-07-30T07:17:08;5.57;;;4.45;;
29812;SDS011;16707;48.106;11.548;2022-07-30T07:19:41;5.28;;;4.78;;
29812;SDS011;16707;48.106;11.548;2022-07-30T07:22:18;5.72;;;5.03;;
29812;SDS011;16707;48.106;11.548;2022-07-30T07:24:50;5.05;;;4.55;;
29812;SDS011;16707;48.106;11.548;2022-07-30T07:27:23;5.30;;;4.60;;
29812;SDS011;16707;48.106;11.548;2022-07-30T07:29:50;5.80;;;4.75;;
29812;SDS011;16707;48.106;11.548;2022-07-30T07:32:18;6.53;;;5.18;;
29812;SDS011;16707;48.106;11.548;2022-07-30T07:34:51;5.78;;;4.97;;
29812;SDS011;16707;48.106;11.548;2022-07-30T07:37:20;6.22;;;4.47;;
29812;SDS011;16707;48.106;11.548;2022-07-30T07:39:50;5.60;;;5.10;;
29812;SDS011;16707;48.106;11.548;2022-07-30T07:42:20;6.15;;;5.07;;
29812;SDS011;16707;48.106;11.548;2022-07-30T07:44:50;5.53;;;5.03;;
29812;SDS011;16707;48.106;11.548;2022-07-30T07:47:17;5.63;;;4.82;;
29812;SDS011;16707;48.106;11.548;2022-07-30T07:49:53;6.88;;;5.20;;
29812;SDS011;16707;48.106;11.548;2022-07-30T07:52:31;6.07;;;5.05;;
29812;SDS011;16707;48.106;11.548;2022-07-30T07:54:58;5.55;;;5.05;;
29812;SDS011;16707;48.106;11.548;2022-07-30T07:57:28;7.47;;;5.32;;
29812;SDS011;16707;48.106;11.548;2022-07-30T07:59:55;7.32;;;5.05;;
29812;SDS011;16707;48.106;11.548;2022-07-30T08:02:26;7.03;;;5.18;;
29812;SDS011;16707;48.106;11.548;2022-07-30T08:04:56;5.65;;;5.15;;
29812;SDS011;16707;48.106;11.548;2022-07-30T08:07:27;9.02;;;5.43;;
29812;SDS011;16707;48.106;11.548;2022-07-30T08:10:03;5.72;;;5.05;;
29812;SDS011;16707;48.106;11.548;2022-07-30T08:12:31;4.97;;;4.50;;
29812;SDS011;16707;48.106;11.548;2022-07-30T08:15:05;6.65;;;5.22;;
29812;SDS011;16707;48.106;11.548;2022-07-30T08:17:38;5.55;;;4.65;;
29812;SDS011;16707;48.106;11.548;2022-07-30T08:20:07;5.70;;;4.70;;
29812;SDS011;16707;48.106;11.548;2022-07-30T08:22:36;8.20;;;5.00;;
29812;SDS011;16707;48.106;11.548;2022-07-30T08:25:08;7.70;;;4.90;;
29812;SDS011;16707;48.106;11.548;2022-07-30T08:27:43;6.13;;;4.57;;
29812;SDS011;16707;48.106;11.548;2022-07-30T08:30:19;5.97;;;4.38;;
29812;SDS011;16707;48.106;11.548;2022-07-30T08:32:46;5.30;;;3.70;;
29812;SDS011;16707;48.106;11.548;2022-07-30T08:35:14;4.75;;;3.67;;
29812;SDS011;16707;48.106;11.548;2022-07-30T08:37:42;3.92;;;3.63;;
29812;SDS011;16707;48.106;11.548;2022-07-30T08:40:16;4.57;;;3.45;;
29812;SDS011;16707;48.106;11.548;2022-07-30T08:42:49;4.43;;;4.03;;
29812;SDS011;16707;48.106;11.548;2022-07-30T08:45:18;6.68;;;4.35;;
29812;SDS011;16707;48.106;11.548;2022-07-30T08:47:48;4.68;;;3.97;;
29812;SDS011;16707;48.106;11.548;2022-07-30T08:50:17;4.78;;;3.90;;
29812;SDS011;16707;48.106;11.548;2022-07-30T08:52:47;5.60;;;3.83;;
29812;SDS011;16707;48.106;11.548;2022-07-30T08:55:21;4.07;;;3.78;;
29812;SDS011;16707;48.106;11.548;2022-07-30T08:57:49;5.70;;;4.18;;
29812;SDS011;16707;48.106;11.548;2022-07-30T09:00:17;4.28;;;3.80;;
29812;SDS011;16707;48.106;11.548;2022-07-30T09:02:55;7.15;;;4.45;;
29812;SDS011;16707;48.106;11.548;2022-07-30T09:05:24;5.10;;;3.40;;
29812;SDS011;16707;48.106;11.548;2022-07-30T09:07:52;4.28;;;3.88;;
29812;SDS011;16707;48.106;11.548;2022-07-30T09:10:32;4.10;;;3.40;;
29812;SDS011;16707;48.106;11.548;2022-07-30T09:13:02;5.07;;;4.38;;
29812;SDS011;16707;48.106;11.548;2022-07-30T09:15:39;4.53;;;4.10;;
29812;SDS011;16707;48.106;11.548;2022-07-30T09:18:07;3.88;;;3.40;;
29812;SDS011;16707;48.106;11.548;2022-07-30T09:20:38;5.40;;;3.83;;
29812;SDS011;16707;48.106;11.548;2022-07-30T09:23:07;4.85;;;3.65;;
29812;SDS011;16707;48.106;11.548;2022-07-30T09:25:42;4.68;;;3.35;;
29812;SDS011;16707;48.106;11.548;2022-07-30T09:28:11;4.03;;;3.38;;
29812;SDS011;16707;48.106;11.548;2022-07-30T09:30:47;4.40;;;3.53;;
29812;SDS011;16707;48.106;11.548;2022-07-30T09:33:30;3.88;;;3.05;;
29812;SDS011;16707;48.106;11.548;2022-07-30T09:36:12;5.40;;;3.40;;
29812;SDS011;16707;48.106;11.548;2022-07-30T09:38:46;5.57;;;3.45;;
29812;SDS011;16707;48.106;11.548;2022-07-30T09:41:17;4.30;;;3.40;;
29812;SDS011;16707;48.106;11.548;2022-07-30T09:43:59;5.03;;;3.70;;
29812;SDS011;16707;48.106;11.548;2022-07-30T09:46:40;4.00;;;3.58;;
29812;SDS011;16707;48.106;11.548;2022-07-30T09:49:15;3.70;;;3.40;;
29812;SDS011;16707;48.106;11.548;2022-07-30T09:51:47;3.72;;;3.40;;
29812;SDS011;16707;48.106;11.548;2022-07-30T09:54:18;5.03;;;3.90;;
29812;SDS011;16707;48.106;11.548;2022-07-30T09:57:04;5.43;;;3.45;;
29812;SDS011;16707;48.106;11.548;2022-07-30T09:59:33;3.95;;;3.50;;
29812;SDS011;16707;48.106;11.548;2022-07-30T10:02:06;4.32;;;3.30;;
29812;SDS011;16707;48.106;11.548;2022-07-30T10:04:41;3.38;;;3.08;;
29812;SDS011;16707;48.106;11.548;2022-07-30T10:07:20;6.03;;;3.72;;
29812;SDS011;16707;48.106;11.548;2022-07-30T10:09:55;5.97;;;3.40;;
29812;SDS011;16707;48.106;11.548;2022-07-30T10:12:31;3.45;;;3.15;;
29812;SDS011;16707;48.106;11.548;2022-07-30T10:15:00;4.28;;;3.10;;
29812;SDS011;16707;48.106;11.548;2022-07-30T10:17:28;3.80;;;2.90;;
29812;SDS011;16707;48.106;11.548;2022-07-30T10:20:06;5.25;;;3.10;;
29812;SDS011;16707;48.106;11.548;2022-07-30T10:22:35;3.17;;;2.80;;
29812;SDS011;16707;48.106;11.548;2022-07-30T10:25:06;3.67;;;2.67;;
29812;SDS011;16707;48.106;11.548;2022-07-30T10:27:35;4.00;;;2.30;;
29812;SDS011;16707;48.106;11.548;2022-07-30T10:30:08;3.42;;;3.10;;
29812;SDS011;16707;48.106;11.548;2022-07-30T10:32:45;7.70;;;3.03;;
29812;SDS011;16707;48.106;11.548;2022-07-30T10:35:16;3.95;;;2.78;;
29812;SDS011;16707;48.106;11.548;2022-07-30T10:37:47;3.75;;;3.05;;
29812;SDS011;16707;48.106;11.548;2022-07-30T10:40:20;4.20;;;3.10;;
29812;SDS011;16707;48.106;11.548;2022-07-30T10:46:25;3.30;;;2.83;;
29812;SDS011;16707;48.106;11.548;2022-07-30T10:49:11;3.17;;;2.55;;
29812;SDS011;16707;48.106;11.548;2022-07-30T10:51:47;2.78;;;2.47;;
29812;SDS011;16707;48.106;11.548;2022-07-30T10:54:34;3.45;;;2.72;;
29812;SDS011;16707;48.106;11.548;2022-07-30T10:57:05;3.40;;;2.50;;
29812;SDS011;16707;48.106;11.548;2022-07-30T11:02:39;3.22;;;2.25;;
29812;SDS011;16707;48.106;11.548;2022-07-30T11:05:43;4.57;;;2.70;;
29812;SDS011;16707;48.106;11.548;2022-07-30T11:08:36;2.35;;;2.15;;
29812;SDS011;16707;48.106;11.548;2022-07-30T11:14:17;3.35;;;2.50;;
29812;SDS011;16707;48.106;11.548;2022-07-30T11:16:58;2.88;;;2.58;;
29812;SDS011;16707;48.106;11.548;2022-07-30T11:19:32;2.33;;;2.13;;
29812;SDS011;16707;48.106;11.548;2022-07-30T11:24:54;3.13;;;2.83;;
29812;SDS011;16707;48.106;11.548;2022-07-30T11:27:38;2.80;;;2.42;;
29812;SDS011;16707;48.106;11.548;2022-07-30T11:36:08;3.40;;;2.75;;
29812;SDS011;16707;48.106;11.548;2022-07-30T11:38:49;3.78;;;2.67;;
29812;SDS011;16707;48.106;11.548;2022-07-30T11:41:21;2.95;;;2.28;;
29812;SDS011;16707;48.106;11.548;2022-07-30T11:46:56;3.95;;;2.70;;
29812;SDS011;16707;48.106;11.548;2022-07-30T11:49:24;2.53;;;2.33;;
29812;SDS011;16707;48.106;11.548;2022-07-30T11:52:00;2.90;;;2.60;;
29812;SDS011;16707;48.106;11.548;2022-07-30T11:54:31;3.70;;;2.80;;
29812;SDS011;16707;48.106;11.548;2022-07-30T11:56:58;4.38;;;2.60;;
29812;SDS011;16707;48.106;11.548;2022-07-30T11:59:26;2.90;;;2.70;;
29812;SDS011;16707;48.106;11.548;2022-07-30T12:02:00;4.35;;;2.75;;
29812;SDS011;16707;48.106;11.548;2022-07-30T12:04:30;4.25;;;3.08;;
29812;SDS011;16707;48.106;11.548;2022-07-30T12:06:57;3.22;;;2.75;;
29812;SDS011;16707;48.106;11.548;2022-07-30T12:09:27;2.90;;;2.58;;
29812;SDS011;16707;48.106;11.548;2022-07-30T12:11:56;4.53;;;2.90;;
29812;SDS011;16707;48.106;11.548;2022-07-30T12:14:23;3.25;;;2.88;;
29812;SDS011;16707;48.106;11.548;2022-07-30T12:16:51;4.00;;;2.60;;
29812;SDS011;16707;48.106;11.548;2022-07-30T12:19:23;2.60;;;2.40;;
29812;SDS011;16707;48.106;11.548;2022-07-30T12:21:57;3.13;;;2.53;;
29812;SDS011;16707;48.106;11.548;2022-07-30T12:24:31;3.85;;;2.33;;
29812;SDS011;16707;48.106;11.548;2022-07-30T12:27:02;2.67;;;2.47;;
29812;SDS011;16707;48.106;11.548;2022-07-30T12:29:31;2.63;;;2.10;;
29812;SDS011;16707;48.106;11.548;2022-07-30T12:31:59;3.75;;;2.40;;
29812;SDS011;16707;48.106;11.548;2022-07-30T12:34:28;4.70;;;2.50;;
29812;SDS011;16707;48.106;11.548;2022-07-30T12:37:05;3.40;;;2.15;;
29812;SDS011;16707;48.106;11.548;2022-07-30T12:39:36;2.50;;;2.30;;
29812;SDS011;16707;48.106;11.548;2022-07-30T12:42:07;2.50;;;2.10;;
29812;SDS011;16707;48.106;11.548;2022-07-30T12:44:44;3.05;;;2.22;;
29812;SDS011;16707;48.106;11.548;2022-07-30T12:47:22;3.30;;;2.00;;
29812;SDS011;16707;48.106;11.548;2022-07-30T12:49:56;2.53;;;2.33;;
29812;SDS011;16707;48.106;11.548;2022-07-30T12:52:32;2.67;;;2.25;;
29812;SDS011;16707;48.106;11.548;2022-07-30T12:55:05;2.40;;;2.20;;
29812;SDS011;16707;48.106;11.548;2022-07-30T12:57:54;2.97;;;2.40;;
29812;SDS011;16707;48.106;11.548;2022-07-30T13:00:28;3.67;;;2.05;;
29812;SDS011;16707;48.106;11.548;2022-07-30T13:02:57;2.65;;;2.22;;
29812;SDS011;16707;48.106;11.548;2022-07-30T13:08:18;3.80;;;2.60;;
29812;SDS011;16707;48.106;11.548;2022-07-30T13:10:55;5.93;;;3.92;;
29812;SDS011;16707;48.106;11.548;2022-07-30T13:13:25;3.65;;;2.30;;
29812;SDS011;16707;48.106;11.548;2022-07-30T13:15:57;2.42;;;2.22;;
29812;SDS011;16707;48.106;11.548;2022-07-30T13:18:26;6.93;;;2.80;;
29812;SDS011;16707;48.106;11.548;2022-07-30T13:20:58;2.55;;;2.28;;
29812;SDS011;16707;48.106;11.548;2022-07-30T13:23:31;4.72;;;2.60;;
29812;SDS011;16707;48.106;11.548;2022-07-30T13:26:00;2.67;;;2.47;;
29812;SDS011;16707;48.106;11.548;2022-07-30T13:28:27;3.03;;;2.58;;
29812;SDS011;16707;48.106;11.548;2022-07-30T13:30:56;2.88;;;2.17;;
29812;SDS011;16707;48.106;11.548;2022-07-30T13:33:29;2.67;;;2.47;;
29812;SDS011;16707;48.106;11.548;2022-07-30T13:35:58;2.38;;;2.17;;
29812;SDS011;16707;48.106;11.548;2022-07-30T13:38:25;3.95;;;2.25;;
29812;SDS011;16707;48.106;11.548;2022-07-30T13:40:53;2.75;;;2.25;;
29812;SDS011;16707;48.106;11.548;2022-07-30T13:43:20;3.28;;;2.50;;
29812;SDS011;16707;48.106;11.548;2022-07-30T13:45:48;2.50;;;2.30;;
29812;SDS011;16707;48.106;11.548;2022-07-30T13:48:19;2.92;;;2.63;;
29812;SDS011;16707;48.106;11.548;2022-07-30T13:50:51;2.95;;;2.40;;
29812;SDS011;16707;48.106;11.548;2022-07-30T13:53:20;2.72;;;2.30;;
29812;SDS011;16707;48.106;11.548;2022-07-30T13:55:47;2.75;;;2.17;;
29812;SDS011;16707;48.106;11.548;2022-07-30T13:58:18;2.60;;;2.38;;
29812;SDS011;16707;48.106;11.548;2022-07-30T14:00:51;2.80;;;2.30;;
29812;SDS011;16707;48.106;11.548;2022-07-30T14:03:22;3.10;;;2.30;;
29812;SDS011;16707;48.106;11.548;2022-07-30T14:05:55;2.80;;;2.60;;
29812;SDS011;16707;48.106;11.548;2022-07-30T14:08:23;2.50;;;2.30;;
29812;SDS011;16707;48.106;11.548;2022-07-30T14:10:57;2.72;;;2.47;;
29812;SDS011;16707;48.106;11.548;2022-07-30T14:13:28;2.80;;;2.33;;
29812;SDS011;16707;48.106;11.548;2022-07-30T14:15:56;2.85;;;2.42;;
29812;SDS011;16707;48.106;11.548;2022-07-30T14:18:24;3.78;;;2.65;;
29812;SDS011;16707;48.106;11.548;2022-07-30T14:20:51;2.45;;;2.08;;
29812;SDS011;16707;48.106;11.548;2022-07-30T14:23:18;2.80;;;2.33;;
29812;SDS011;16707;48.106;11.548;2022-07-30T14:25:47;4.07;;;2.13;;
29812;SDS011;16707;48.106;11.548;2022-07-30T14:28:14;2.58;;;2.38;;
29812;SDS011;16707;48.106;11.548;2022-07-30T14:30:42;2.47;;;2.28;;
29812;SDS011;16707;48.106;11.548;2022-07-30T14:33:09;2.30;;;1.98;;
29812;SDS011;16707;48.106;11.548;2022-07-30T14:35:39;2.15;;;2.00;;
29812;SDS011;16707;48.106;11.548;2022-07-30T14:38:09;3.25;;;2.70;;
29812;SDS011;16707;48.106;11.548;2022-07-30T14:40:36;2.25;;;2.05;;
29812;SDS011;16707;48.106;11.548;2022-07-30T14:43:04;2.33;;;2.13;;
29812;SDS011;16707;48.106;11.548;2022-07-30T14:45:36;3.28;;;2.28;;
29812;SDS011;16707;48.106;11.548;2022-07-30T14:48:06;2.22;;;1.85;;
29812;SDS011;16707;48.106;11.548;2022-07-30T14:50:33;4.20;;;2.40;;
29812;SDS011;16707;48.106;11.548;2022-07-30T14:53:00;2.20;;;1.80;;
29812;SDS011;16707;48.106;11.548;2022-07-30T14:55:28;4.03;;;2.40;;
29812;SDS011;16707;48.106;11.548;2022-07-30T14:58:05;3.30;;;2.22;;
29812;SDS011;16707;48.106;11.548;2022-07-30T15:00:34;2.28;;;2.08;;
29812;SDS011;16707;48.106;11.548;2022-07-30T15:03:04;2.35;;;2.15;;
29812;SDS011;16707;48.106;11.548;2022-07-30T15:05:31;2.50;;;2.08;;
29812;SDS011;16707;48.106;11.548;2022-07-30T15:07:58;2.60;;;2.40;;
29812;SDS011;16707;48.106;11.548;2022-07-30T15:10:29;2.70;;;2.22;;
29812;SDS011;16707;48.106;11.548;2022-07-30T15:12:56;3.17;;;2.55;;
29812;SDS011;16707;48.106;11.548;2022-07-30T15:15:28;4.72;;;2.35;;
29812;SDS011;16707;48.106;11.548;2022-07-30T15:17:59;3.83;;;2.25;;
29812;SDS011;16707;48.106;11.548;2022-07-30T15:20:30;2.88;;;2.10;;
29812;SDS011;16707;48.106;11.548;2022-07-30T15:23:00;2.58;;;2.08;;
29812;SDS011;16707;48.106;11.548;2022-07-30T15:25:28;3.65;;;2.38;;
29812;SDS011;16707;48.106;11.548;2022-07-30T15:27:55;3.10;;;1.92;;
29812;SDS011;16707;48.106;11.548;2022-07-30T15:30:27;2.95;;;2.47;;